Terminal Aerodrome Forecast
Issued by NWS Blacksburg, VA

Current Version | Previous Version | Graphics & Text | Print | Product List | Glossary On
Versions: 1 2 3 4 5 6 7 8 9 10 11 12 13 14 15 16 17 18 19 20 21 22 23 24 25 26 27 28 29 30 31 32 33 34 35 36 37 38 39 40 41 42 43 44 45 46 47 48 49 50
215
FTUS41 KRNK 211900 AAA
TAFBLF
TAF AMD
KBLF 211900Z 2119/2218 13006KT 5SM -SHRA OVC035
     FM212000 17008KT 4SM -SHRA OVC025
      TEMPO 2200/2203 2SM SHRA OVC008
     FM220400 17006KT P6SM VCSH OVC010
     FM220900 24004KT P6SM BKN010
     FM221500 29006KT P6SM BKN035=

USA.gov is the U.S. government's official web portal to all federal, state and local government web resources and services.